Sheridan, WY (82801)

11:20 AM MST on February 21, 2017 (GMT -0700)
South Sheridan | | Change Station
Active Advisory: High Wind Warning

Elev 3770 ft 44.79 °N, 106.95 °W | Updated 14 seconds ago

Overcast
Overcast
55.6 °F
Feels Like 55.6 °F
N
0.0
Wind Variable Wind from WSW
Gusts 0.0 mph

Today
High -- | Low -- °F
--% Chance of Precip.
Yesterday
High -- | Low -- °F
Precip. -- in
Pressure 29.70 in
Visibility 10.0 miles
Clouds Mostly Cloudy 9500 ft
Overcast 12000 ft
Dew Point 33 °F
Humidity 43%
Rainfall 0.00 in
Snow Depth Not available.
6:58 AM 5:45 PM
Waning Crescent, 23% visible
METAR KSHR 211753Z AUTO 24022G30KT 10SM BKN095 OVC120 15/M01 A2975 RMK AO2 PK WND 23030/1753 SLP055 T01501011 10156 20033 53004
Pressure 29.70 in
Visibility 10.0 miles
Clouds Mostly Cloudy 9500 ft
Overcast 12000 ft
Dew Point 33 °F
Humidity 43%
Rainfall 0.00 in
Snow Depth Not available.
6:58 AM 5:45 PM
Waning Crescent, 23% visible
METAR KSHR 211753Z AUTO 24022G30KT 10SM BKN095 OVC120 15/M01 A2975 RMK AO2 PK WND 23030/1753 SLP055 T01501011 10156 20033 53004

Get Your Daily Forecast Email!

Thanks for signing up!

Be on the lookout for a verification email in your inbox.

You'll start receiving the daily forecast at 8 AM.

×

10-Day Weather Forecast

Almanac

Astronomy

Feb. 21, 2017 Rise Set
Actual Time
Civil Twilight
Nautical Twilight
Astronomical Twilight
Moon
Length of Visible Light
Length of Day
Tomorrow will be .
, % of the Moon is Illuminated

Today's Extremes

State Highs State Lows

Community

WunderPhotos

Upload Photos

1,962,540 photos uploaded!

WunderBlog® & News

Nearby

Air Quality

  Air Quality AQ Index Pollutant
Not available.

Snow Depth

Station Depth Elevation

Earthquake Activity

City Distance Mag. Time & Date
Minimum magnitude displayed is 2.5.

Coastal Water Temperatures

Place Temperature

Stations

Nearby Weather Stations

Station Location Temp. Windchill Dew Point Humidity Wind Precip. Elev Updated Type
                   

Watches & Warnings

High Wind Warning
Issued: 11:18 AM MST Feb. 21, 2017 – National Weather Service

... High Wind Warning remains in effect until 9 PM MST this
evening...

* timing... southwest to west winds will increase by early
afternoon and remain strong through sunset. Strongest winds
will be along the eastern slopes of the Pryor and Bighorn
Mountains, and over the higher hills further east.

* Impacts... hazardous cross winds on I-90 from Lodge Grass to
Sheridan, as well as Highway 212 through Lame Deer and
Broadus.

* Winds... gusts of 50 to 60 mph.

Precautionary/preparedness actions...

Winds of these magnitudes can cause property damage without extra
precautions. Motorists in high profile vehicles should use
caution.